Time;durP1;ratioP1;P1;durP2;ratioP2;P2;SDS_P1;SDS_P2;PMS_P1;PMS_P2;Temp;Humidity;BMP_temperature;BMP_pressure;BME280_temperature;BME280_humidity;BME280_pressure;Samples;Min_cycle;Max_cycle;Signal;HPM_P1;HPM_P2
2022/08/16 00:01:47;;;;;;;2.70;2.50;;;18.10;99.90;;;;;;5029285;28;20957;-70
2022/08/16 00:04:14;;;;;;;2.73;2.47;;;18.10;99.90;;;;;;5028374;28;20467;-69
2022/08/16 00:06:41;;;;;;;2.93;2.70;;;18.10;99.90;;;;;;5029757;28;20519;-68
2022/08/16 00:09:08;;;;;;;3.00;2.73;;;18.10;99.90;;;;;;5028889;28;20502;-70
2022/08/16 00:11:36;;;;;;;2.50;2.20;;;18.10;99.90;;;;;;5029728;28;20461;-67
2022/08/16 00:14:09;;;;;;;2.50;2.30;;;18.10;99.90;;;;;;5029456;28;20489;-70
2022/08/16 00:16:36;;;;;;;2.60;2.40;;;18.00;99.90;;;;;;5028901;28;20485;-69
2022/08/16 00:19:04;;;;;;;2.93;2.73;;;18.00;99.90;;;;;;5031167;28;20472;-69
2022/08/16 00:21:31;;;;;;;3.23;2.90;;;18.00;99.90;;;;;;5033090;28;20484;-69
2022/08/16 00:23:58;;;;;;;3.27;2.97;;;18.00;99.90;;;;;;5032965;28;20457;-69
2022/08/16 00:26:25;;;;;;;3.13;2.83;;;18.00;99.90;;;;;;5033395;28;20474;-69
2022/08/16 00:28:52;;;;;;;2.97;2.77;;;18.00;99.90;;;;;;5033060;28;20461;-67
2022/08/16 00:31:20;;;;;;;3.47;2.67;;;18.00;99.90;;;;;;5032837;28;20460;-69
2022/08/16 00:33:47;;;;;;;2.60;2.40;;;18.00;99.90;;;;;;5032548;28;20484;-69
2022/08/16 00:36:13;;;;;;;4.00;3.00;;;18.00;99.90;;;;;;5033121;28;20461;-69
2022/08/16 00:38:40;;;;;;;2.83;2.60;;;18.00;99.90;;;;;;5033336;28;20813;-68
2022/08/16 00:41:07;;;;;;;4.73;2.97;;;18.00;99.90;;;;;;5023276;28;20470;-68
2022/08/16 00:43:35;;;;;;;2.80;2.60;;;17.90;99.90;;;;;;5011337;28;20466;-69
2022/08/16 00:46:10;;;;;;;2.70;2.50;;;17.90;99.90;;;;;;5013293;28;20466;-69
2022/08/16 00:48:39;;;;;;;3.60;3.07;;;17.90;99.90;;;;;;5013388;28;20481;-70
2022/08/16 00:51:07;;;;;;;2.80;2.60;;;17.90;99.90;;;;;;5013230;28;20465;-68
2022/08/16 00:53:34;;;;;;;3.77;3.40;;;17.90;99.90;;;;;;5012895;28;20493;-69
2022/08/16 00:56:05;;;;;;;3.03;2.73;;;17.80;99.90;;;;;;5013082;28;20516;-69
2022/08/16 00:58:35;;;;;;;3.53;3.23;;;17.80;99.90;;;;;;5012838;28;20490;-70
2022/08/16 01:01:02;;;;;;;3.03;2.80;;;17.70;99.90;;;;;;5013384;28;20466;-69
2022/08/16 01:03:30;;;;;;;3.33;3.03;;;17.70;99.90;;;;;;5012365;28;20465;-68
2022/08/16 01:05:58;;;;;;;2.97;2.67;;;17.60;99.90;;;;;;5013316;28;20465;-69
2022/08/16 01:08:26;;;;;;;3.43;2.97;;;17.60;99.90;;;;;;5012505;28;20482;-70
2022/08/16 01:10:54;;;;;;;2.53;2.33;;;17.60;99.90;;;;;;5012951;28;20469;-70
2022/08/16 01:13:24;;;;;;;4.23;3.07;;;17.50;99.90;;;;;;5012572;28;20572;-70
2022/08/16 01:15:59;;;;;;;3.50;2.90;;;17.50;99.90;;;;;;5013014;28;20504;-69
2022/08/16 01:18:33;;;;;;;3.17;2.90;;;17.50;99.90;;;;;;5011981;28;20481;-70
2022/08/16 01:21:17;;;;;;;3.40;3.10;;;17.50;99.90;;;;;;5013105;28;20461;-70
2022/08/16 01:23:56;;;;;;;3.93;3.17;;;17.50;99.90;;;;;;5012139;28;20462;-69
2022/08/16 01:26:29;;;;;;;2.93;2.60;;;17.60;99.90;;;;;;5012564;28;20524;-69
2022/08/16 01:28:56;;;;;;;3.00;2.70;;;17.60;99.90;;;;;;5012513;28;20468;-70
2022/08/16 01:31:24;;;;;;;3.40;3.10;;;17.60;99.90;;;;;;5010905;28;20489;-69
2022/08/16 01:33:51;;;;;;;3.23;2.73;;;17.60;99.90;;;;;;5012201;28;20536;-70
2022/08/16 01:36:17;;;;;;;3.00;2.80;;;17.60;99.90;;;;;;5012009;28;20988;-69
2022/08/16 01:38:46;;;;;;;3.07;2.77;;;17.60;99.90;;;;;;5012471;28;20490;-69
2022/08/16 01:41:17;;;;;;;3.63;3.00;;;17.70;99.90;;;;;;5011946;28;21160;-70
2022/08/16 01:43:45;;;;;;;2.97;2.77;;;17.70;99.90;;;;;;5011613;28;20525;-68
2022/08/16 01:46:20;;;;;;;2.80;2.60;;;17.70;99.90;;;;;;5012275;28;21236;-70
2022/08/16 01:48:47;;;;;;;3.20;2.63;;;17.70;99.90;;;;;;5011991;28;20468;-70
2022/08/16 01:51:16;;;;;;;9.20;3.40;;;17.70;99.90;;;;;;5012206;28;20809;-68
2022/08/16 01:53:43;;;;;;;3.00;2.60;;;17.60;99.90;;;;;;5011343;28;20525;-69
2022/08/16 01:56:10;;;;;;;3.37;3.10;;;17.60;99.90;;;;;;5011659;28;20471;-68
2022/08/16 01:58:38;;;;;;;2.80;2.53;;;17.60;99.90;;;;;;5011742;28;20949;-69
2022/08/16 02:01:06;;;;;;;3.10;2.80;;;17.50;99.90;;;;;;5012055;28;20520;-68
2022/08/16 02:03:32;;;;;;;4.07;3.07;;;17.50;99.90;;;;;;5011418;28;20465;-69
2022/08/16 02:05:59;;;;;;;2.87;2.60;;;17.50;99.90;;;;;;5011831;28;20469;-68
2022/08/16 02:08:26;;;;;;;3.07;2.77;;;17.50;99.90;;;;;;5010869;28;21013;-69
2022/08/16 02:10:54;;;;;;;3.40;3.10;;;17.50;99.90;;;;;;5011898;28;20466;-69
2022/08/16 02:13:21;;;;;;;3.17;2.80;;;17.50;99.90;;;;;;5011041;28;20557;-69
2022/08/16 02:15:49;;;;;;;2.57;2.37;;;17.60;99.90;;;;;;5011852;28;20462;-70
2022/08/16 02:18:16;;;;;;;2.63;2.43;;;17.60;99.90;;;;;;5011066;28;21027;-68
2022/08/16 02:20:47;;;;;;;2.87;2.57;;;17.60;99.90;;;;;;5011638;28;21044;-69
2022/08/16 02:23:14;;;;;;;3.57;3.03;;;17.70;99.90;;;;;;5011451;28;20493;-69
2022/08/16 02:25:41;;;;;;;3.57;3.27;;;17.70;99.90;;;;;;5011203;28;21011;-69
2022/08/16 02:28:08;;;;;;;4.77;3.27;;;17.70;99.90;;;;;;5011502;28;20482;-70
2022/08/16 02:30:34;;;;;;;2.90;2.70;;;17.70;99.90;;;;;;5011306;28;20466;-69
2022/08/16 02:33:04;;;;;;;3.13;2.83;;;17.80;99.90;;;;;;5011139;28;21088;-70
2022/08/16 02:35:32;;;;;;;3.67;2.90;;;17.80;99.90;;;;;;5010841;28;20498;-70
2022/08/16 02:38:00;;;;;;;3.63;2.60;;;17.90;99.90;;;;;;5011244;28;20481;-70
2022/08/16 02:40:27;;;;;;;3.10;2.80;;;17.90;99.90;;;;;;5011317;28;20573;-69
2022/08/16 02:42:55;;;;;;;3.03;2.40;;;17.90;99.90;;;;;;5010919;28;20524;-69
2022/08/16 02:45:25;;;;;;;3.93;3.10;;;17.90;99.90;;;;;;5010403;28;20494;-70
2022/08/16 02:47:52;;;;;;;2.80;2.60;;;17.90;99.90;;;;;;5011437;28;20481;-68
2022/08/16 02:50:21;;;;;;;5.30;2.87;;;18.00;99.90;;;;;;5010966;28;20877;-68
2022/08/16 02:52:48;;;;;;;3.30;2.83;;;17.90;99.90;;;;;;5011338;28;20470;-69
2022/08/16 02:55:14;;;;;;;2.80;2.60;;;18.00;99.90;;;;;;5010088;28;20494;-70
2022/08/16 02:57:41;;;;;;;3.70;3.23;;;18.00;99.90;;;;;;5010794;28;20481;-68
2022/08/16 03:00:11;;;;;;;4.50;3.30;;;17.90;99.90;;;;;;5010705;28;20975;-69
2022/08/16 03:02:39;;;;;;;3.97;3.07;;;17.90;99.90;;;;;;5010268;28;20951;-70
2022/08/16 03:05:07;;;;;;;3.50;3.20;;;17.90;99.90;;;;;;5010274;28;20512;-70
2022/08/16 03:07:35;;;;;;;3.50;3.20;;;17.90;99.90;;;;;;5010062;28;20478;-69
2022/08/16 03:10:02;;;;;;;3.47;3.17;;;17.90;99.90;;;;;;5010065;28;21052;-68
2022/08/16 03:12:29;;;;;;;3.77;3.37;;;17.90;99.90;;;;;;5010655;28;20461;-69
2022/08/16 03:14:56;;;;;;;2.87;2.63;;;18.00;99.90;;;;;;5010235;28;20893;-70
2022/08/16 03:17:22;;;;;;;3.80;3.37;;;18.00;99.90;;;;;;5010614;28;20486;-69
2022/08/16 03:19:50;;;;;;;3.43;3.00;;;18.00;99.90;;;;;;5010811;28;20461;-69
2022/08/16 03:22:18;;;;;;;3.50;3.20;;;18.00;99.90;;;;;;5010244;28;20461;-69
2022/08/16 03:24:46;;;;;;;3.20;2.90;;;17.90;99.90;;;;;;5010704;28;20458;-70
2022/08/16 03:27:13;;;;;;;3.53;3.10;;;17.90;99.90;;;;;;5010799;28;20844;-69
2022/08/16 03:29:39;;;;;;;4.50;2.93;;;17.90;99.90;;;;;;5010746;28;20998;-69
2022/08/16 03:32:06;;;;;;;4.47;3.10;;;17.90;99.90;;;;;;5010843;28;20516;-69
2022/08/16 03:34:33;;;;;;;4.90;2.67;;;17.90;99.90;;;;;;5009909;28;20864;-70
2022/08/16 03:37:00;;;;;;;2.87;2.67;;;17.90;99.90;;;;;;5010741;28;20486;-68
2022/08/16 03:39:28;;;;;;;3.43;3.13;;;17.90;99.90;;;;;;5009954;28;20477;-69
2022/08/16 03:41:56;;;;;;;3.10;2.90;;;17.90;99.90;;;;;;5010609;28;20461;-69
2022/08/16 03:44:23;;;;;;;2.70;2.50;;;17.90;99.90;;;;;;5009532;28;20458;-69
2022/08/16 03:46:49;;;;;;;2.93;2.73;;;17.80;99.90;;;;;;5010230;28;20493;-69
2022/08/16 03:49:16;;;;;;;4.13;3.10;;;17.80;99.90;;;;;;5010310;28;20512;-70
2022/08/16 03:51:44;;;;;;;3.57;3.17;;;17.80;99.90;;;;;;5010255;28;20465;-68
2022/08/16 03:54:11;;;;;;;4.67;3.07;;;17.80;99.90;;;;;;5011081;28;20544;-69
2022/08/16 03:56:37;;;;;;;4.77;3.20;;;17.80;99.90;;;;;;5014439;28;20568;-68
2022/08/16 03:59:05;;;;;;;4.00;3.47;;;17.80;99.90;;;;;;5013887;28;20461;-70
2022/08/16 04:01:32;;;;;;;3.80;3.40;;;17.80;99.90;;;;;;5014115;28;20479;-69
2022/08/16 04:03:59;;;;;;;3.43;3.13;;;17.80;99.90;;;;;;5013622;28;20988;-70
2022/08/16 04:06:25;;;;;;;3.47;3.17;;;17.80;99.90;;;;;;5013842;28;21016;-69
2022/08/16 04:08:52;;;;;;;3.00;2.80;;;17.70;99.90;;;;;;5014257;28;20491;-69
2022/08/16 04:11:19;;;;;;;2.73;2.53;;;17.70;99.90;;;;;;5013618;28;20877;-69
2022/08/16 04:13:46;;;;;;;3.13;2.93;;;17.70;99.90;;;;;;5013680;28;20461;-68
2022/08/16 04:16:16;;;;;;;3.53;3.23;;;17.60;99.90;;;;;;5014029;28;20520;-68
2022/08/16 04:18:43;;;;;;;3.40;3.10;;;17.60;99.90;;;;;;5014140;28;20508;-69
2022/08/16 04:21:10;;;;;;;4.10;3.43;;;17.60;99.90;;;;;;5013773;28;20516;-69
2022/08/16 04:23:37;;;;;;;3.43;3.13;;;17.60;99.90;;;;;;5012846;28;20711;-69
2022/08/16 04:26:05;;;;;;;3.70;3.37;;;17.50;99.90;;;;;;5013937;28;20552;-69
2022/08/16 04:28:31;;;;;;;3.50;3.20;;;17.50;99.90;;;;;;5013439;28;20491;-68
2022/08/16 04:30:58;;;;;;;3.57;3.07;;;17.50;99.90;;;;;;5013828;28;21012;-69
2022/08/16 04:33:26;;;;;;;3.50;3.10;;;17.40;99.90;;;;;;5012946;28;20519;-69
2022/08/16 04:35:56;;;;;;;2.97;2.67;;;17.50;99.90;;;;;;5013241;28;21032;-69
2022/08/16 04:38:22;;;;;;;3.83;3.43;;;17.50;99.90;;;;;;5013241;28;20569;-69
2022/08/16 04:40:49;;;;;;;3.40;2.90;;;17.50;99.90;;;;;;5012299;28;20519;-69
2022/08/16 04:43:17;;;;;;;3.57;3.27;;;17.50;99.90;;;;;;5012852;28;20465;-68
2022/08/16 04:45:44;;;;;;;3.40;3.10;;;17.50;99.90;;;;;;5013095;28;20457;-69
2022/08/16 04:48:11;;;;;;;3.23;2.77;;;17.40;99.90;;;;;;5012847;28;20599;-68
2022/08/16 04:50:39;;;;;;;3.40;3.10;;;17.50;99.90;;;;;;5013424;28;20875;-69
2022/08/16 04:53:06;;;;;;;3.50;2.97;;;17.50;99.90;;;;;;5013318;28;20472;-68
2022/08/16 04:55:33;;;;;;;3.40;3.10;;;17.50;99.90;;;;;;5011789;28;20577;-69
2022/08/16 04:58:00;;;;;;;3.50;3.20;;;17.60;99.90;;;;;;5012958;28;20486;-69
2022/08/16 05:00:32;;;;;;;3.20;2.90;;;17.60;99.90;;;;;;5013250;28;20833;-68
2022/08/16 05:03:01;;;;;;;3.20;2.90;;;17.60;99.90;;;;;;5012772;28;20472;-68
2022/08/16 05:05:28;;;;;;;3.47;2.97;;;17.60;99.90;;;;;;5012259;28;20949;-68
2022/08/16 05:07:56;;;;;;;3.03;2.73;;;17.70;99.90;;;;;;5012889;28;20488;-67
2022/08/16 05:10:23;;;;;;;4.33;3.60;;;17.70;99.90;;;;;;5012118;28;20470;-69
2022/08/16 05:12:49;;;;;;;3.73;3.40;;;17.60;99.90;;;;;;5012816;28;20973;-68
2022/08/16 05:15:16;;;;;;;3.47;3.17;;;17.70;99.90;;;;;;5012048;28;20573;-69
2022/08/16 05:17:43;;;;;;;4.40;3.00;;;17.70;99.90;;;;;;5012748;28;20486;-69
2022/08/16 05:20:11;;;;;;;3.73;3.30;;;17.80;99.90;;;;;;5012350;28;20465;-68
2022/08/16 05:22:39;;;;;;;3.43;3.13;;;17.80;99.90;;;;;;5012361;28;20878;-67
2022/08/16 05:25:10;;;;;;;3.43;3.13;;;17.80;99.90;;;;;;5012080;28;20458;-69
2022/08/16 05:27:37;;;;;;;3.37;2.70;;;17.80;99.90;;;;;;5012518;28;20497;-68
2022/08/16 05:30:06;;;;;;;4.20;3.13;;;17.90;99.90;;;;;;5012644;28;20473;-69
2022/08/16 05:32:33;;;;;;;3.63;3.33;;;17.90;99.90;;;;;;5012168;28;20465;-68
2022/08/16 05:35:00;;;;;;;3.73;3.43;;;18.00;99.90;;;;;;5011418;28;20889;-68
2022/08/16 05:37:27;;;;;;;3.80;3.07;;;18.00;99.90;;;;;;5012124;28;20482;-69
2022/08/16 05:39:54;;;;;;;3.97;3.07;;;18.10;99.90;;;;;;5011975;28;21163;-69
2022/08/16 05:42:22;;;;;;;4.77;3.53;;;18.10;99.90;;;;;;5012090;28;20469;-70
2022/08/16 05:44:49;;;;;;;3.80;3.20;;;18.10;99.90;;;;;;5062106;23;20487;-69
2022/08/16 05:47:15;;;;;;;3.80;3.27;;;18.20;99.90;;;;;;5031936;28;20868;-68
2022/08/16 05:49:42;;;;;;;3.83;2.90;;;18.20;99.90;;;;;;5032021;28;20822;-69
2022/08/16 05:52:10;;;;;;;3.93;3.53;;;18.30;99.90;;;;;;5031703;28;20461;-69
2022/08/16 05:54:37;;;;;;;4.80;3.20;;;18.30;99.90;;;;;;5031510;28;20912;-69
2022/08/16 05:57:04;;;;;;;3.30;2.90;;;18.30;99.90;;;;;;5031819;28;20794;-69
2022/08/16 05:59:32;;;;;;;2.70;2.50;;;18.30;99.90;;;;;;5031526;28;20500;-69
2022/08/16 06:01:59;;;;;;;3.83;2.83;;;18.40;99.90;;;;;;5031973;28;20468;-69
2022/08/16 06:04:26;;;;;;;3.10;2.80;;;18.40;99.90;;;;;;5031389;28;20827;-69
2022/08/16 06:06:52;;;;;;;3.47;3.17;;;18.40;99.90;;;;;;5031939;28;20516;-68
2022/08/16 06:09:19;;;;;;;4.23;3.43;;;18.40;99.90;;;;;;5018068;28;20466;-68
2022/08/16 06:11:47;;;;;;;3.30;3.00;;;18.40;99.90;;;;;;5011717;28;20870;-69
2022/08/16 06:14:14;;;;;;;3.65;3.35;;;18.40;99.90;;;;;;5009272;28;20494;-69
2022/08/16 06:16:42;;;;;;;3.57;3.13;;;18.40;99.90;;;;;;5011263;28;20229;-68
2022/08/16 06:19:10;;;;;;;3.43;3.13;;;18.40;99.90;;;;;;5011447;28;20465;-69
2022/08/16 06:21:36;;;;;;;3.63;3.33;;;18.40;99.90;;;;;;5009454;28;20462;-69
2022/08/16 06:24:04;;;;;;;3.83;3.30;;;18.40;99.90;;;;;;5009721;28;20810;-69
2022/08/16 06:26:31;;;;;;;3.50;3.10;;;18.40;99.90;;;;;;5011963;28;20465;-69
2022/08/16 06:28:58;;;;;;;3.40;3.10;;;18.50;99.90;;;;;;5011881;28;20457;-69
2022/08/16 06:31:25;;;;;;;3.67;3.00;;;18.60;99.90;;;;;;5011571;28;20961;-69
2022/08/16 06:33:53;;;;;;;4.03;3.63;;;18.60;99.90;;;;;;5011195;28;20538;-69
2022/08/16 06:36:20;;;;;;;4.27;3.50;;;18.60;99.90;;;;;;5010562;28;21199;-69
2022/08/16 06:38:47;;;;;;;3.57;3.27;;;18.70;99.90;;;;;;5010728;28;20471;-69
2022/08/16 06:41:13;;;;;;;6.23;4.10;;;18.60;99.90;;;;;;5011235;28;20465;-68
2022/08/16 06:43:40;;;;;;;3.37;3.07;;;18.70;99.90;;;;;;5010407;28;20509;-68
2022/08/16 06:46:20;;;;;;;3.50;3.20;;;18.80;99.90;;;;;;5011201;28;20556;-69
2022/08/16 06:48:47;;;;;;;3.80;3.23;;;18.90;99.90;;;;;;5011481;28;20462;-69
2022/08/16 06:51:15;;;;;;;4.43;3.30;;;19.00;99.90;;;;;;5010106;28;20469;-69
2022/08/16 06:53:42;;;;;;;3.43;3.13;;;19.10;99.90;;;;;;5010529;28;20466;-69
2022/08/16 06:56:09;;;;;;;3.77;3.03;;;19.20;99.90;;;;;;5010951;28;20494;-69
2022/08/16 06:58:36;;;;;;;4.57;4.13;;;19.30;99.90;;;;;;5010412;28;20486;-68
2022/08/16 07:01:04;;;;;;;3.63;3.27;;;19.40;99.90;;;;;;5010831;28;20458;-69
2022/08/16 07:03:31;;;;;;;3.13;2.87;;;19.50;99.90;;;;;;5010439;28;20461;-68
2022/08/16 07:05:57;;;;;;;5.33;3.53;;;19.60;99.90;;;;;;5010515;28;20469;-69
2022/08/16 07:08:26;;;;;;;5.60;3.50;;;19.70;99.90;;;;;;5008768;28;20489;-69
2022/08/16 07:10:53;;;;;;;3.63;3.30;;;19.90;99.90;;;;;;5010274;28;20466;-69
2022/08/16 07:13:20;;;;;;;3.80;3.30;;;19.90;99.90;;;;;;5010635;28;20465;-68
2022/08/16 07:15:48;;;;;;;3.57;3.27;;;20.00;99.90;;;;;;5009348;28;20526;-69
2022/08/16 07:18:18;;;;;;;3.87;3.57;;;20.10;99.90;;;;;;5010708;28;20495;-68
2022/08/16 07:20:45;;;;;;;5.10;3.40;;;20.20;99.90;;;;;;5010205;28;20521;-69
2022/08/16 07:23:12;;;;;;;3.50;3.20;;;20.40;99.90;;;;;;5010165;28;20474;-68
2022/08/16 07:25:40;;;;;;;3.63;3.30;;;20.40;99.90;;;;;;5009715;28;20465;-69
2022/08/16 07:28:07;;;;;;;3.73;3.40;;;20.50;99.90;;;;;;5008676;28;20495;-69
2022/08/16 07:30:35;;;;;;;3.60;3.30;;;20.50;99.90;;;;;;5009832;28;20466;-68
2022/08/16 07:33:03;;;;;;;4.00;3.67;;;20.60;99.90;;;;;;5010625;28;20714;-69
2022/08/16 07:35:30;;;;;;;9.23;3.67;;;20.70;99.90;;;;;;5009495;28;21108;-69
2022/08/16 07:37:57;;;;;;;4.10;3.73;;;20.90;99.90;;;;;;5009399;28;20986;-69
2022/08/16 07:40:24;;;;;;;4.10;3.80;;;20.90;99.90;;;;;;5010832;28;20520;-69
2022/08/16 07:42:53;;;;;;;4.27;3.93;;;21.00;99.90;;;;;;5010396;28;20462;-69
2022/08/16 07:45:20;;;;;;;4.47;4.17;;;21.10;99.90;;;;;;5010183;28;20466;-69
2022/08/16 07:47:47;;;;;;;4.00;3.70;;;21.10;99.90;;;;;;5010797;28;20548;-69
2022/08/16 07:50:15;;;;;;;4.90;3.90;;;21.30;99.90;;;;;;5010425;28;20961;-69
2022/08/16 07:52:43;;;;;;;4.80;4.40;;;21.40;99.90;;;;;;5010546;28;20457;-69
2022/08/16 07:55:12;;;;;;;3.80;3.50;;;21.40;99.90;;;;;;5009510;28;20465;-68
2022/08/16 07:57:39;;;;;;;4.83;4.33;;;21.50;99.90;;;;;;5010562;28;20858;-69
2022/08/16 08:00:09;;;;;;;4.43;4.10;;;21.60;99.90;;;;;;5010220;28;20471;-69
2022/08/16 08:02:36;;;;;;;4.87;4.03;;;21.70;99.90;;;;;;5010996;28;20469;-66
2022/08/16 08:05:04;;;;;;;4.23;3.80;;;21.90;99.90;;;;;;5010271;28;20473;-66
2022/08/16 08:07:31;;;;;;;3.83;3.53;;;21.80;99.90;;;;;;5010799;28;20487;-66
2022/08/16 08:09:58;;;;;;;4.10;3.70;;;21.80;99.90;;;;;;5010578;28;20547;-66
2022/08/16 08:12:25;;;;;;;4.00;3.70;;;21.80;99.90;;;;;;5009976;28;20466;-67
2022/08/16 08:14:52;;;;;;;4.10;3.80;;;21.80;99.90;;;;;;5012535;28;20469;-67
2022/08/16 08:17:21;;;;;;;4.87;3.87;;;21.80;99.90;;;;;;5029294;28;20495;-67
2022/08/16 08:19:48;;;;;;;4.60;4.20;;;21.90;99.90;;;;;;5029952;28;20517;-67
2022/08/16 08:22:15;;;;;;;6.20;4.10;;;22.10;99.90;;;;;;5017655;28;20466;-66
2022/08/16 08:24:42;;;;;;;4.67;4.00;;;22.30;99.90;;;;;;5009979;28;20879;-67
2022/08/16 08:27:08;;;;;;;4.30;3.90;;;22.40;99.90;;;;;;5009909;28;20480;-66
2022/08/16 08:29:36;;;;;;;4.20;3.90;;;22.50;99.90;;;;;;5009476;28;20993;-67
2022/08/16 08:32:04;;;;;;;9.67;4.17;;;22.60;99.90;;;;;;5010113;28;20875;-69
2022/08/16 08:34:32;;;;;;;4.90;3.70;;;22.70;99.90;;;;;;5009544;28;20462;-67
2022/08/16 08:36:59;;;;;;;4.23;3.80;;;22.80;99.90;;;;;;5009433;28;20501;-67
2022/08/16 08:39:26;;;;;;;3.70;3.40;;;22.90;99.90;;;;;;5010272;28;20498;-67
2022/08/16 08:41:53;;;;;;;8.27;4.10;;;23.00;99.90;;;;;;5012559;28;20474;-69
2022/08/16 08:44:21;;;;;;;3.60;3.40;;;23.10;99.90;;;;;;5012191;28;20474;-67
2022/08/16 08:46:47;;;;;;;3.57;3.20;;;23.00;99.90;;;;;;5013198;28;20492;-67
2022/08/16 08:49:14;;;;;;;4.50;4.10;;;22.90;99.90;;;;;;5012801;28;20993;-68
2022/08/16 08:51:42;;;;;;;4.80;3.90;;;22.80;99.90;;;;;;5012822;28;20990;-67
2022/08/16 08:54:09;;;;;;;3.80;3.50;;;22.80;99.90;;;;;;5011885;28;20967;-67
2022/08/16 08:56:37;;;;;;;3.97;3.30;;;22.90;99.90;;;;;;5013071;28;20491;-67
2022/08/16 08:59:05;;;;;;;4.37;3.97;;;23.00;99.90;;;;;;5012278;28;20566;-67
2022/08/16 09:01:35;;;;;;;4.17;3.77;;;23.20;99.90;;;;;;5013070;28;20551;-67
2022/08/16 09:04:02;;;;;;;4.50;4.10;;;23.40;99.90;;;;;;5012411;28;20996;-67
2022/08/16 09:06:31;;;;;;;4.60;3.93;;;23.40;99.90;;;;;;5011378;28;20970;-66
2022/08/16 09:08:59;;;;;;;4.00;3.70;;;23.40;99.90;;;;;;5012451;28;20476;-67
2022/08/16 09:11:27;;;;;;;4.40;4.10;;;23.30;99.90;;;;;;5012387;28;20461;-66
2022/08/16 09:13:54;;;;;;;4.30;3.70;;;23.20;99.90;;;;;;5012153;28;20466;-66
2022/08/16 09:16:21;;;;;;;4.43;4.03;;;23.10;99.90;;;;;;5012333;28;20570;-66
2022/08/16 09:18:48;;;;;;;4.00;3.70;;;23.00;99.90;;;;;;5009501;28;20894;-66
2022/08/16 09:21:16;;;;;;;3.83;3.53;;;22.90;99.90;;;;;;5011665;28;20463;-66
2022/08/16 09:23:43;;;;;;;5.40;4.50;;;22.70;99.90;;;;;;5011775;28;20500;-66
2022/08/16 09:26:14;;;;;;;4.60;4.20;;;22.70;99.90;;;;;;5012436;28;20541;-67
2022/08/16 09:28:41;;;;;;;4.40;4.00;;;22.60;99.90;;;;;;5012069;28;20990;-66
2022/08/16 09:31:08;;;;;;;4.00;3.70;;;22.60;99.90;;;;;;5011764;28;20463;-67
2022/08/16 09:33:35;;;;;;;4.10;3.70;;;22.60;99.90;;;;;;5011937;28;20472;-67
2022/08/16 09:36:02;;;;;;;4.50;4.00;;;22.70;99.90;;;;;;5011775;28;21010;-67
2022/08/16 09:38:29;;;;;;;3.90;3.50;;;23.00;99.90;;;;;;5011988;28;20520;-66
2022/08/16 09:40:56;;;;;;;5.77;3.90;;;23.30;99.90;;;;;;5011741;28;20550;-66
2022/08/16 09:43:24;;;;;;;3.90;3.60;;;23.60;99.90;;;;;;5011273;28;20473;-67
2022/08/16 09:45:51;;;;;;;6.43;4.50;;;23.80;99.90;;;;;;5012443;28;20464;-66
2022/08/16 09:48:19;;;;;;;4.13;3.83;;;24.00;99.20;;;;;;5011919;28;20484;-67
2022/08/16 09:50:46;;;;;;;4.60;4.20;;;24.20;99.90;;;;;;5011551;28;20462;-66
2022/08/16 09:53:16;;;;;;;3.73;3.43;;;24.40;99.90;;;;;;5011320;28;20467;-66
2022/08/16 09:55:45;;;;;;;5.27;3.97;;;24.60;99.90;;;;;;5010089;28;20480;-67
2022/08/16 09:58:12;;;;;;;3.60;3.37;;;24.70;97.20;;;;;;5010333;28;20554;-66
2022/08/16 10:00:40;;;;;;;3.90;3.60;;;24.70;96.80;;;;;;5011640;28;20471;-69
2022/08/16 10:03:07;;;;;;;3.83;3.53;;;24.30;97.60;;;;;;5011602;28;20472;-69
2022/08/16 10:05:36;;;;;;;3.60;3.30;;;24.00;98.10;;;;;;5011654;28;20465;-68
2022/08/16 10:08:04;;;;;;;3.70;3.40;;;23.80;98.30;;;;;;5010888;28;20480;-69
2022/08/16 10:10:31;;;;;;;4.17;3.73;;;23.70;98.30;;;;;;5011259;28;20460;-69
2022/08/16 10:13:13;;;;;;;3.77;3.50;;;23.60;98.80;;;;;;5008868;28;20460;-68
2022/08/16 10:15:42;;;;;;;4.10;3.80;;;23.60;99.00;;;;;;5011355;28;20837;-68
2022/08/16 10:18:11;;;;;;;3.70;3.40;;;23.50;97.50;;;;;;5011084;28;20499;-68
2022/08/16 10:20:41;;;;;;;3.70;3.40;;;23.50;97.40;;;;;;5010697;28;20501;-68
2022/08/16 10:23:10;;;;;;;4.53;4.10;;;23.60;97.30;;;;;;5011187;28;20467;-66
2022/08/16 10:25:39;;;;;;;4.23;3.30;;;23.60;96.70;;;;;;5011051;28;20467;-67
2022/08/16 10:28:06;;;;;;;4.27;3.70;;;23.50;96.90;;;;;;5010773;28;20624;-66
2022/08/16 10:30:33;;;;;;;5.30;3.93;;;23.60;98.00;;;;;;5011058;28;20468;-68
2022/08/16 10:33:01;;;;;;;3.70;3.40;;;23.60;98.00;;;;;;5010271;28;20467;-69
2022/08/16 10:35:27;;;;;;;3.57;3.23;;;23.70;98.50;;;;;;5011252;28;20474;-69
2022/08/16 10:37:54;;;;;;;3.47;3.17;;;23.90;98.40;;;;;;5030621;28;20509;-68
2022/08/16 10:40:21;;;;;;;3.73;3.43;;;24.00;97.90;;;;;;5030714;28;20463;-68
2022/08/16 10:42:49;;;;;;;4.03;3.47;;;24.00;97.90;;;;;;5030464;28;20475;-69
2022/08/16 10:45:16;;;;;;;3.50;3.20;;;24.00;97.00;;;;;;5029066;28;20466;-69
2022/08/16 10:47:43;;;;;;;4.70;3.00;;;24.20;97.50;;;;;;5030425;28;20479;-69
2022/08/16 10:50:12;;;;;;;4.17;3.77;;;24.50;97.30;;;;;;5029889;28;20469;-69
2022/08/16 10:52:39;;;;;;;4.43;3.27;;;24.70;96.90;;;;;;5030545;28;20689;-69
2022/08/16 10:55:08;;;;;;;3.60;3.30;;;24.80;96.80;;;;;;5029517;28;20470;-68
2022/08/16 10:57:35;;;;;;;4.80;4.30;;;24.90;97.50;;;;;;5029803;28;20523;-69
2022/08/16 11:00:06;;;;;;;4.23;3.83;;;24.90;97.50;;;;;;5029892;28;20836;-68
2022/08/16 11:02:33;;;;;;;3.60;3.30;;;24.90;97.90;;;;;;5030554;28;20469;-68
2022/08/16 11:04:59;;;;;;;6.03;3.70;;;24.90;98.10;;;;;;5027969;28;20469;-69
2022/08/16 11:07:27;;;;;;;5.43;3.47;;;25.00;98.20;;;;;;5030205;28;20483;-66
2022/08/16 11:09:54;;;;;;;4.17;3.87;;;25.20;98.80;;;;;;5029359;28;20467;-68
2022/08/16 11:12:21;;;;;;;4.57;4.10;;;25.30;98.10;;;;;;5029977;28;20475;-68
2022/08/16 11:14:47;;;;;;;3.80;3.50;;;25.50;99.20;;;;;;5029756;28;20472;-67
2022/08/16 11:17:14;;;;;;;4.00;3.00;;;25.80;98.20;;;;;;5030417;28;20934;-66
2022/08/16 11:19:41;;;;;;;3.50;3.00;;;26.10;96.90;;;;;;5031081;28;20494;-67
2022/08/16 11:22:08;;;;;;;3.40;3.20;;;26.40;95.70;;;;;;5030669;28;20464;-67
2022/08/16 11:24:39;;;;;;;3.23;2.93;;;26.60;96.40;;;;;;5030017;28;20591;-67
2022/08/16 11:27:07;;;;;;;6.60;3.40;;;26.90;94.80;;;;;;5026368;28;20562;-70
2022/08/16 11:29:33;;;;;;;6.00;3.40;;;26.90;93.70;;;;;;5011740;28;20491;-69
2022/08/16 11:32:00;;;;;;;3.07;2.87;;;26.90;95.10;;;;;;5010793;28;20852;-70
2022/08/16 11:34:27;;;;;;;4.00;3.10;;;27.00;95.10;;;;;;5010963;28;20488;-70
2022/08/16 11:36:54;;;;;;;3.40;3.10;;;27.20;94.70;;;;;;5010629;28;20489;-69
2022/08/16 11:39:21;;;;;;;3.20;3.00;;;27.30;94.70;;;;;;5011394;28;20470;-69
2022/08/16 11:41:49;;;;;;;3.03;2.83;;;27.50;94.90;;;;;;5011394;28;20461;-70
2022/08/16 11:46:43;;;;;;;3.30;3.00;;;27.50;93.90;;;;;;5008076;28;20840;-69
2022/08/16 11:49:10;;;;;;;4.80;3.37;;;27.60;93.80;;;;;;5007519;28;20546;-69
2022/08/16 11:51:38;;;;;;;3.40;3.10;;;27.40;93.70;;;;;;5010491;28;20698;-69
2022/08/16 11:54:05;;;;;;;3.33;2.90;;;27.30;94.50;;;;;;5009643;28;20745;-69
2022/08/16 11:56:31;;;;;;;3.20;2.90;;;27.40;94.70;;;;;;5010137;28;20543;-68
2022/08/16 11:58:59;;;;;;;3.50;3.20;;;27.70;94.00;;;;;;5002496;28;20466;-69
2022/08/16 12:01:26;;;;;;;3.77;3.47;;;27.90;94.40;;;;;;4990103;28;20474;-70
2022/08/16 12:03:53;;;;;;;3.47;3.17;;;27.90;93.30;;;;;;4989987;28;20462;-70
2022/08/16 12:06:20;;;;;;;3.73;3.30;;;27.70;93.10;;;;;;4989542;28;20466;-70
2022/08/16 12:08:47;;;;;;;3.40;3.10;;;27.40;93.60;;;;;;4990310;28;20985;-70
2022/08/16 12:11:15;;;;;;;4.13;3.37;;;27.20;93.30;;;;;;4988852;28;20474;-70
2022/08/16 12:13:44;;;;;;;4.30;3.43;;;27.00;93.80;;;;;;4988884;28;20466;-69
2022/08/16 12:16:13;;;;;;;3.53;3.30;;;26.80;93.90;;;;;;4993247;28;20501;-69
2022/08/16 12:18:40;;;;;;;3.47;3.10;;;26.80;95.00;;;;;;4993482;28;20494;-70
2022/08/16 12:21:08;;;;;;;3.50;3.07;;;26.90;95.00;;;;;;4993612;28;20470;-69
2022/08/16 12:23:34;;;;;;;3.23;2.93;;;27.30;95.20;;;;;;4991604;28;20474;-70
2022/08/16 12:26:01;;;;;;;5.10;4.60;;;27.70;94.80;;;;;;4993471;28;20987;-68
2022/08/16 12:28:30;;;;;;;3.87;3.57;;;27.90;93.20;;;;;;4992527;28;21066;-70
2022/08/16 12:30:57;;;;;;;3.20;3.00;;;27.90;93.50;;;;;;4993294;28;20989;-70
2022/08/16 12:33:25;;;;;;;3.80;3.37;;;27.70;93.70;;;;;;4993227;28;20938;-68
2022/08/16 12:35:52;;;;;;;3.43;3.20;;;27.50;93.10;;;;;;4992748;28;20455;-69
2022/08/16 12:38:19;;;;;;;3.53;3.23;;;27.30;93.90;;;;;;4992652;28;20495;-68
2022/08/16 12:40:49;;;;;;;3.77;3.47;;;27.10;94.00;;;;;;4993703;28;20930;-69
2022/08/16 12:43:17;;;;;;;6.70;3.33;;;26.90;93.80;;;;;;4992271;28;20537;-70
2022/08/16 12:45:46;;;;;;;3.23;2.93;;;26.80;94.10;;;;;;4993323;28;20851;-69
2022/08/16 12:51:01;;;;;;;2.80;2.60;;;26.90;94.20;;;;;;4993459;28;20969;-71
2022/08/16 12:53:28;;;;;;;4.80;3.50;;;26.90;94.50;;;;;;4993416;28;20469;-71
2022/08/16 12:55:55;;;;;;;4.20;3.10;;;27.00;94.40;;;;;;4993087;28;20463;-70